Time;durP1;ratioP1;P1;durP2;ratioP2;P2;SDS_P1;SDS_P2;PMS_P1;PMS_P2;Temp;Humidity;BMP_temperature;BMP_pressure;BME280_temperature;BME280_humidity;BME280_pressure;Samples;Min_cycle;Max_cycle;Signal;HPM_P1;HPM_P2
2022/03/21 00:02:05;;;;;;;128.98;49.55;;;;;;;-149.78;100.00;50381.47;5088306;28;20120;-73
2022/03/21 00:04:30;;;;;;;134.75;49.65;;;;;;;-149.78;100.00;50424.50;5087044;28;20036;-72
2022/03/21 00:06:56;;;;;;;138.93;48.08;;;;;;;-149.78;100.00;50399.09;5083990;28;20035;-72
2022/03/21 00:09:22;;;;;;;148.13;50.65;;;;;;;-149.78;100.00;50385.38;5086670;28;20085;-73
2022/03/21 00:11:50;;;;;;;156.55;53.20;;;;;;;-149.78;100.00;50408.84;5086310;28;20032;-72
2022/03/21 00:14:16;;;;;;;140.55;51.13;;;;;;;-149.78;100.00;50373.66;5085267;28;20481;-72
2022/03/21 00:16:43;;;;;;;136.57;50.33;;;;;;;-149.78;100.00;50365.84;5085657;28;20036;-72
2022/03/21 00:19:09;;;;;;;126.15;49.70;;;;;;;-149.78;100.00;50385.38;5069674;28;20032;-73
2022/03/21 00:21:35;;;;;;;137.18;48.58;;;;;;;-149.78;100.00;50365.84;5093376;28;20031;-72
2022/03/21 00:24:03;;;;;;;138.35;50.45;;;;;;;-149.78;100.00;50416.69;5075297;28;20388;-72
2022/03/21 00:26:29;;;;;;;141.20;50.70;;;;;;;-149.78;100.00;50379.53;5085615;28;20036;-72
2022/03/21 00:28:54;;;;;;;137.25;51.25;;;;;;;-149.78;100.00;50361.91;5085920;28;20141;-72
2022/03/21 00:31:20;;;;;;;146.40;49.83;;;;;;;-149.78;100.00;50397.13;5086323;28;20610;-72
2022/03/21 00:33:46;;;;;;;135.68;50.88;;;;;;;-149.78;100.00;50348.22;5085867;28;20376;-72
2022/03/21 00:36:11;;;;;;;130.82;48.85;;;;;;;-149.78;100.00;50389.31;5066916;28;20044;-72
2022/03/21 00:38:38;;;;;;;141.40;52.35;;;;;;;-149.78;100.00;50412.78;5067436;28;20028;-72
2022/03/21 00:41:05;;;;;;;144.13;51.85;;;;;;;-149.78;100.00;50404.94;5064342;28;20128;-72
2022/03/21 00:43:31;;;;;;;152.38;50.67;;;;;;;-149.78;100.00;50377.56;5086936;28;20073;-71
2022/03/21 00:45:57;;;;;;;144.57;51.20;;;;;;;-149.78;100.00;50381.47;5068553;28;20694;-72
2022/03/21 00:48:25;;;;;;;134.73;50.67;;;;;;;-149.78;100.00;50412.78;5084510;28;20355;-72
2022/03/21 00:50:54;;;;;;;130.57;50.20;;;;;;;-149.78;100.00;50385.38;5069570;28;20123;-72
2022/03/21 00:53:20;;;;;;;140.38;51.38;;;;;;;-149.78;100.00;50428.41;5083668;28;20066;-72
2022/03/21 00:55:48;;;;;;;142.90;52.25;;;;;;;-149.78;100.00;50389.31;5068394;28;20125;-72
2022/03/21 00:58:15;;;;;;;146.23;52.42;;;;;;;-149.78;100.00;50408.84;5083249;28;20028;-72
2022/03/21 01:00:42;;;;;;;147.88;52.65;;;;;;;-149.78;100.00;50399.09;5084832;28;20040;-72
2022/03/21 01:03:08;;;;;;;138.15;51.88;;;;;;;-149.78;100.00;50342.38;5083523;28;20743;-72
2022/03/21 01:05:34;;;;;;;139.68;48.30;;;;;;;-149.78;100.00;50408.84;5084808;28;20101;-72
2022/03/21 01:08:02;;;;;;;142.32;50.83;;;;;;;-149.78;100.00;50422.56;5084507;28;20040;-72
2022/03/21 01:10:28;;;;;;;139.07;50.97;;;;;;;-149.78;100.00;50432.31;5065129;28;20059;-72
2022/03/21 01:12:55;;;;;;;137.48;50.25;;;;;;;-149.78;100.00;50383.44;5084764;28;20024;-72
2022/03/21 01:15:23;;;;;;;137.40;49.25;;;;;;;-149.78;100.00;50389.31;5067133;28;21305;-72
2022/03/21 01:17:50;;;;;;;131.20;46.80;;;;;;;-149.78;100.00;50440.16;5083935;28;20028;-72
2022/03/21 01:20:17;;;;;;;139.45;50.38;;;;;;;-149.78;100.00;50385.38;5083251;28;20503;-72
2022/03/21 01:22:44;;;;;;;148.95;50.13;;;;;;;-149.78;100.00;50401.03;5083999;28;20089;-72
2022/03/21 01:25:11;;;;;;;138.85;47.85;;;;;;;-149.78;100.00;50373.66;5084182;28;20545;-72
2022/03/21 01:27:38;;;;;;;137.52;47.83;;;;;;;-149.78;100.00;50444.06;5085525;28;20059;-72
2022/03/21 01:30:05;;;;;;;145.07;48.65;;;;;;;-149.78;100.00;50379.53;5085754;28;20032;-71
2022/03/21 01:32:33;;;;;;;130.02;47.45;;;;;;;-149.78;100.00;50416.69;5066320;28;20081;-72
2022/03/21 01:34:58;;;;;;;136.73;49.03;;;;;;;-149.78;100.00;50416.69;5084524;28;20020;-72
2022/03/21 01:37:24;;;;;;;143.50;49.78;;;;;;;-149.78;100.00;50369.75;5066350;28;20035;-72
2022/03/21 01:39:50;;;;;;;135.50;47.97;;;;;;;-149.78;100.00;50389.31;5085503;28;20148;-72
2022/03/21 01:42:16;;;;;;;135.75;48.15;;;;;;;-149.78;100.00;50424.50;5083896;28;20123;-72
2022/03/21 01:44:42;;;;;;;138.93;48.55;;;;;;;-149.78;100.00;50397.13;5066194;28;20423;-72
2022/03/21 01:47:08;;;;;;;142.93;50.38;;;;;;;-149.78;100.00;50420.59;5080727;28;20028;-72
2022/03/21 01:49:33;;;;;;;143.85;50.22;;;;;;;-149.78;100.00;50404.94;5083854;28;20024;-72
2022/03/21 01:51:59;;;;;;;144.30;48.55;;;;;;;-149.78;100.00;50420.59;5086021;28;20825;-72
2022/03/21 01:57:11;;;;;;;142.32;51.00;;;;;;;-149.78;100.00;50397.13;5086686;28;20039;-71
2022/03/21 01:59:37;;;;;;;140.73;49.88;;;;;;;-149.78;100.00;50387.34;5088761;28;20040;-72
2022/03/21 02:02:05;;;;;;;139.48;48.90;;;;;;;-149.78;100.00;50381.47;5089485;28;20131;-69
2022/03/21 02:04:31;;;;;;;137.15;48.28;;;;;;;-149.78;100.00;50361.91;5085903;28;20028;-69
2022/03/21 02:06:58;;;;;;;126.35;49.42;;;;;;;-149.78;100.00;50453.84;5068077;28;20060;-68
2022/03/21 02:09:24;;;;;;;139.57;48.15;;;;;;;-149.78;100.00;50436.25;5087294;28;20020;-69
2022/03/21 02:11:50;;;;;;;147.82;51.88;;;;;;;-149.78;100.00;50436.25;5085229;28;20024;-68
2022/03/21 02:14:16;;;;;;;155.85;52.90;;;;;;;-149.78;100.00;50455.81;5067375;28;20039;-69
2022/03/21 02:16:42;;;;;;;145.60;50.45;;;;;;;-149.78;100.00;50401.03;5086429;28;20063;-68
2022/03/21 02:19:30;;;;;;;156.48;51.78;;;;;;;-149.78;100.00;50412.78;5086265;28;20502;-69
2022/03/21 02:22:20;;;;;;;175.52;56.55;;;;;;;-149.78;100.00;50432.31;5086898;28;20118;-69
2022/03/21 02:24:55;;;;;;;162.07;54.20;;;;;;;-149.78;100.00;50410.81;5086151;28;20074;-68
2022/03/21 02:27:21;;;;;;;150.02;54.53;;;;;;;-149.78;100.00;50385.38;5086648;28;20028;-69
2022/03/21 02:29:49;;;;;;;149.40;52.20;;;;;;;-149.78;100.00;50397.13;5087179;28;20020;-69
2022/03/21 02:32:16;;;;;;;145.10;50.35;;;;;;;-149.78;100.00;50418.63;5087299;28;20471;-68
2022/03/21 02:34:42;;;;;;;163.90;52.85;;;;;;;-149.78;100.00;50412.78;5085583;28;20406;-69
2022/03/21 02:37:16;;;;;;;143.32;52.30;;;;;;;-149.78;100.00;50420.59;5087576;28;20032;-69
2022/03/21 02:39:44;;;;;;;147.98;51.78;;;;;;;-149.78;100.00;50436.25;5082271;28;20032;-69
2022/03/21 02:42:10;;;;;;;153.63;51.10;;;;;;;-149.78;100.00;50401.03;5087357;28;20032;-68
2022/03/21 02:44:38;;;;;;;152.07;51.03;;;;;;;-149.78;100.00;50453.84;5087029;28;20036;-69
2022/03/21 02:47:05;;;;;;;146.27;53.47;;;;;;;-149.78;100.00;50404.94;5068284;28;20097;-69
2022/03/21 02:49:31;;;;;;;150.98;52.45;;;;;;;-149.78;100.00;50428.41;5087354;28;20051;-69
2022/03/21 02:51:59;;;;;;;148.15;51.25;;;;;;;-149.78;100.00;50424.50;5086527;28;20056;-69
2022/03/21 02:54:25;;;;;;;150.52;52.15;;;;;;;-149.78;100.00;50440.16;5085936;28;20030;-68
2022/03/21 02:56:51;;;;;;;147.90;50.97;;;;;;;-149.78;100.00;50436.25;5083409;28;20047;-69
2022/03/21 02:59:17;;;;;;;149.82;51.20;;;;;;;-149.78;100.00;50432.31;5085231;28;20447;-69
2022/03/21 03:01:43;;;;;;;133.30;49.10;;;;;;;-149.78;100.00;50410.81;5083431;28;20476;-68
2022/03/21 03:04:09;;;;;;;146.65;51.10;;;;;;;-149.78;100.00;50393.22;5081729;28;20361;-69
2022/03/21 03:06:35;;;;;;;151.10;49.55;;;;;;;-149.78;100.00;50422.56;5086408;28;20559;-68
2022/03/21 03:09:02;;;;;;;164.02;51.25;;;;;;;-149.78;100.00;50404.94;5068867;28;20039;-68
2022/03/21 03:11:28;;;;;;;152.98;52.38;;;;;;;-149.78;100.00;50404.94;5051700;28;20032;-69
2022/03/21 03:13:53;;;;;;;140.25;47.28;;;;;;;-149.78;100.00;50432.31;5083999;28;20036;-68
2022/03/21 03:16:29;;;;;;;138.43;50.58;;;;;;;-149.78;100.00;50430.38;5086521;28;20028;-69
2022/03/21 03:18:55;;;;;;;146.25;50.45;;;;;;;-149.78;100.00;50397.13;5086469;28;20039;-68
2022/03/21 03:21:24;;;;;;;156.35;51.97;;;;;;;-149.78;100.00;50436.25;5069617;28;20104;-68
2022/03/21 03:23:51;;;;;;;146.43;53.13;;;;;;;-149.78;100.00;50440.16;5082970;28;20071;-69
2022/03/21 03:26:17;;;;;;;169.63;54.45;;;;;;;-149.78;100.00;50412.78;5086026;28;20032;-69
2022/03/21 03:28:44;;;;;;;167.50;54.80;;;;;;;-149.78;100.00;50399.09;5085201;28;20043;-68
2022/03/21 03:31:12;;;;;;;169.55;54.13;;;;;;;-149.78;100.00;50432.31;5084897;28;20086;-68
2022/03/21 03:33:38;;;;;;;145.77;52.40;;;;;;;-149.78;100.00;50428.41;5085907;28;20028;-69
2022/03/21 03:36:04;;;;;;;162.23;55.10;;;;;;;-149.78;100.00;50416.69;5086074;28;20109;-69
2022/03/21 03:38:30;;;;;;;152.32;52.10;;;;;;;-149.78;100.00;50393.22;5082753;28;20633;-69
2022/03/21 03:40:56;;;;;;;157.60;52.72;;;;;;;-149.78;100.00;50414.72;5050674;28;20066;-69
2022/03/21 03:43:23;;;;;;;169.35;53.03;;;;;;;-149.78;100.00;50436.25;5083706;28;20027;-69
2022/03/21 03:45:52;;;;;;;161.07;51.42;;;;;;;-149.78;100.00;50463.63;5086649;28;20407;-69
2022/03/21 03:48:21;;;;;;;139.00;49.03;;;;;;;-149.78;100.00;50424.50;5083785;28;20028;-69
2022/03/21 03:50:47;;;;;;;143.77;49.53;;;;;;;-149.78;100.00;50401.03;5086372;28;20468;-69
2022/03/21 03:53:14;;;;;;;156.98;51.13;;;;;;;-149.78;100.00;50438.19;5083506;28;20024;-69
2022/03/21 03:55:40;;;;;;;150.27;49.42;;;;;;;-149.78;100.00;50397.13;5083356;28;20102;-69
2022/03/21 03:58:05;;;;;;;159.00;48.55;;;;;;;-149.78;100.00;50403.00;5085755;28;20044;-69
2022/03/21 04:00:31;;;;;;;158.88;54.72;;;;;;;-149.78;100.00;50401.03;5083322;28;20086;-69
2022/03/21 04:05:41;;;;;;;153.15;52.10;;;;;;;-149.78;100.00;50404.94;5084498;28;20131;-68
2022/03/21 04:08:07;;;;;;;160.18;54.67;;;;;;;-149.78;100.00;50428.41;5038696;28;20103;-68
2022/03/21 04:10:33;;;;;;;154.40;52.28;;;;;;;-149.78;100.00;50455.81;5088709;28;20032;-69
2022/03/21 04:12:59;;;;;;;148.95;50.17;;;;;;;-149.78;100.00;50416.69;5086594;28;20032;-69
2022/03/21 04:15:26;;;;;;;154.82;51.78;;;;;;;-149.78;100.00;50424.50;5085511;28;20036;-69
2022/03/21 04:17:53;;;;;;;150.70;51.20;;;;;;;-149.78;100.00;50397.13;5083864;28;20032;-69
2022/03/21 04:20:23;;;;;;;147.07;49.45;;;;;;;-149.78;100.00;50426.47;5090692;28;20040;-69
2022/03/21 04:22:48;;;;;;;136.05;49.35;;;;;;;-149.78;100.00;50447.97;5087070;28;20515;-69
2022/03/21 04:25:14;;;;;;;144.98;48.40;;;;;;;-149.78;100.00;50408.84;5068052;28;20044;-69
2022/03/21 04:27:40;;;;;;;148.43;49.63;;;;;;;-149.78;100.00;50432.31;5086443;28;20036;-69
2022/03/21 04:30:07;;;;;;;133.45;46.03;;;;;;;-149.78;100.00;50412.78;5087526;28;20032;-69
2022/03/21 04:32:34;;;;;;;133.35;48.10;;;;;;;-149.78;100.00;50418.63;5083854;28;20063;-69
2022/03/21 04:35:00;;;;;;;147.98;47.90;;;;;;;-149.78;100.00;50424.50;5083269;28;20035;-69
2022/03/21 04:37:26;;;;;;;141.38;47.70;;;;;;;-149.78;100.00;50428.41;5083783;28;20035;-69
2022/03/21 04:39:52;;;;;;;139.35;48.45;;;;;;;-149.78;100.00;50440.16;5087548;28;20349;-69
2022/03/21 04:42:17;;;;;;;129.80;45.60;;;;;;;-149.78;100.00;50420.59;5049854;28;20043;-69
2022/03/21 04:44:44;;;;;;;142.38;47.33;;;;;;;-149.78;100.00;50420.59;5086315;28;20056;-69
2022/03/21 04:47:11;;;;;;;140.75;47.28;;;;;;;-149.78;100.00;50426.47;5084633;28;20040;-69
2022/03/21 04:49:37;;;;;;;135.10;45.72;;;;;;;-149.78;100.00;50428.41;5068739;28;20028;-69
2022/03/21 04:52:03;;;;;;;135.10;45.75;;;;;;;-149.78;100.00;50447.97;5056417;28;20399;-69
2022/03/21 04:54:29;;;;;;;142.30;45.85;;;;;;;-149.78;100.00;50428.41;5077299;28;20021;-69
2022/03/21 04:56:55;;;;;;;151.60;47.78;;;;;;;-149.78;100.00;50404.94;5084546;28;21083;-69
2022/03/21 04:59:21;;;;;;;142.80;45.97;;;;;;;-149.78;100.00;50408.84;5084666;28;20038;-69
2022/03/21 05:01:47;;;;;;;130.20;46.15;;;;;;;-149.78;100.00;50432.31;5085856;28;20024;-69
2022/03/21 05:04:15;;;;;;;145.43;48.47;;;;;;;-149.78;100.00;50397.13;5083178;28;20506;-69
2022/03/21 05:06:40;;;;;;;144.45;47.03;;;;;;;-149.78;100.00;50440.16;5085506;28;20039;-69
2022/03/21 05:09:07;;;;;;;137.45;46.67;;;;;;;-149.78;100.00;50424.50;5086251;28;20150;-69
2022/03/21 05:11:32;;;;;;;140.40;50.67;;;;;;;-149.78;100.00;50453.84;5085022;28;20486;-69
2022/03/21 05:13:58;;;;;;;143.50;50.10;;;;;;;-149.78;100.00;50436.25;5085483;28;20115;-69
2022/03/21 05:16:24;;;;;;;151.07;48.28;;;;;;;-149.78;100.00;50424.50;5084604;28;20440;-69
2022/03/21 05:18:50;;;;;;;146.50;49.45;;;;;;;-149.78;100.00;50440.16;5084272;28;20035;-69
2022/03/21 05:21:16;;;;;;;135.68;46.70;;;;;;;-149.78;100.00;50444.06;5089944;28;20398;-69
2022/03/21 05:31:54;;;;;;;153.13;49.70;;;;;;;-149.78;100.00;50447.97;5086245;28;20051;-69
2022/03/21 05:37:05;;;;;;;140.75;49.38;;;;;;;-149.78;100.00;50397.13;5088907;28;20115;-69
2022/03/21 05:39:30;;;;;;;150.25;49.58;;;;;;;-149.78;100.00;50428.41;5084859;28;20043;-69
2022/03/21 05:41:56;;;;;;;147.50;48.78;;;;;;;-149.78;100.00;50453.84;5083730;28;20031;-69
2022/03/21 05:44:24;;;;;;;150.70;49.05;;;;;;;-149.78;100.00;50453.84;5082364;28;20035;-69
2022/03/21 05:46:50;;;;;;;157.77;48.25;;;;;;;-149.78;100.00;50483.19;5084032;28;20035;-69
2022/03/21 05:49:17;;;;;;;144.00;50.42;;;;;;;-149.78;100.00;50455.81;5063977;28;20043;-69
2022/03/21 05:51:43;;;;;;;141.50;49.08;;;;;;;-149.78;100.00;50475.34;5084014;28;20034;-69
2022/03/21 05:54:13;;;;;;;147.30;48.80;;;;;;;-149.78;100.00;50436.25;5082245;28;20047;-69
2022/03/21 05:56:40;;;;;;;143.10;47.40;;;;;;;-149.78;100.00;50451.88;5085389;28;20109;-69
2022/03/21 06:01:52;;;;;;;132.32;46.25;;;;;;;-149.78;100.00;50459.72;5085122;28;20035;-69
2022/03/21 06:04:19;;;;;;;138.15;47.40;;;;;;;-149.78;100.00;50471.44;5085985;28;20384;-69
2022/03/21 06:06:45;;;;;;;128.32;46.35;;;;;;;-149.78;100.00;50444.06;5084185;28;20060;-69
2022/03/21 06:09:12;;;;;;;137.68;48.13;;;;;;;-149.78;100.00;50447.97;5083775;28;20203;-69
2022/03/21 06:11:37;;;;;;;141.93;46.15;;;;;;;-149.78;100.00;50436.25;5084422;28;20047;-69
2022/03/21 06:14:05;;;;;;;150.80;48.22;;;;;;;-149.78;100.00;50428.41;5084500;28;20028;-69
2022/03/21 06:16:31;;;;;;;132.18;45.90;;;;;;;-149.78;100.00;50440.16;5084373;28;20028;-69
2022/03/21 06:19:00;;;;;;;148.43;48.42;;;;;;;-149.78;100.00;50420.59;5085553;28;20089;-69
2022/03/21 06:21:29;;;;;;;144.35;47.50;;;;;;;-149.78;100.00;50440.16;5090308;28;20036;-69
2022/03/21 06:23:56;;;;;;;143.07;47.67;;;;;;;-149.78;100.00;50434.28;5090098;28;20071;-69
2022/03/21 06:26:22;;;;;;;146.75;45.97;;;;;;;-149.78;100.00;50491.00;5091733;28;20036;-69
2022/03/21 06:28:49;;;;;;;141.30;49.40;;;;;;;-149.78;100.00;50473.41;5084944;28;20028;-69
2022/03/21 06:31:15;;;;;;;140.93;47.38;;;;;;;-149.78;100.00;50430.38;5076830;28;20036;-69
2022/03/21 06:33:41;;;;;;;144.80;47.25;;;;;;;-149.78;100.00;50436.25;5075499;28;20024;-69
2022/03/21 06:36:09;;;;;;;134.13;45.88;;;;;;;-149.78;100.00;50432.31;5070772;28;20511;-69
2022/03/21 06:38:35;;;;;;;139.88;45.17;;;;;;;-149.78;100.00;50447.97;5081818;28;20032;-69
2022/03/21 06:41:01;;;;;;;147.07;45.00;;;;;;;-149.78;100.00;50451.88;5081430;28;20132;-71
2022/03/21 06:43:28;;;;;;;132.88;46.15;;;;;;;-149.78;100.00;50479.28;5085487;28;20036;-72
2022/03/21 06:45:55;;;;;;;134.98;46.35;;;;;;;-149.78;100.00;50453.84;5087293;28;20098;-71
2022/03/21 06:48:23;;;;;;;132.88;45.15;;;;;;;-149.78;100.00;50440.16;5084464;28;20418;-71
2022/03/21 06:50:50;;;;;;;135.68;44.65;;;;;;;-149.78;100.00;50436.25;5084491;28;20036;-71
2022/03/21 06:53:16;;;;;;;138.88;44.50;;;;;;;-149.78;100.00;50467.53;5083204;28;20055;-71
2022/03/21 06:55:43;;;;;;;141.55;45.83;;;;;;;-149.78;100.00;50440.16;5084682;28;20035;-73
2022/03/21 06:58:11;;;;;;;134.63;45.05;;;;;;;-149.78;100.00;50473.41;5084784;28;20032;-72
2022/03/21 07:00:39;;;;;;;134.90;45.33;;;;;;;-149.78;100.00;50440.16;5086225;28;20032;-71
2022/03/21 07:03:05;;;;;;;122.05;44.35;;;;;;;-149.78;100.00;50438.19;5086283;28;20065;-73
2022/03/21 07:05:33;;;;;;;117.60;43.05;;;;;;;-149.78;100.00;50436.25;5083915;28;20032;-72
2022/03/21 07:07:58;;;;;;;99.97;39.00;;;;;;;-149.78;100.00;50408.84;5087142;28;20618;-75
2022/03/21 07:10:25;;;;;;;108.30;39.08;;;;;;;-149.78;100.00;50412.78;5085147;28;20042;-74
2022/03/21 07:12:51;;;;;;;99.22;38.95;;;;;;;-149.78;100.00;50401.03;5084344;28;21336;-71
2022/03/21 07:15:17;;;;;;;112.05;41.90;;;;;;;-149.78;100.00;50393.22;5082669;28;20036;-70
2022/03/21 07:17:43;;;;;;;120.43;45.80;;;;;;;-149.78;100.00;50404.94;5083528;28;20038;-70
2022/03/21 07:20:10;;;;;;;105.13;41.83;;;;;;;-149.78;100.00;50401.03;5082022;28;20032;-70
2022/03/21 07:22:36;;;;;;;96.90;40.10;;;;;;;-149.78;100.00;50428.41;5076098;28;20028;-71
2022/03/21 07:25:02;;;;;;;105.80;42.17;;;;;;;-149.78;100.00;50404.94;5084733;28;20125;-73
2022/03/21 07:27:28;;;;;;;98.30;39.05;;;;;;;-149.78;100.00;50389.31;5049816;28;20032;-70
2022/03/21 07:29:53;;;;;;;92.60;37.83;;;;;;;-149.78;100.00;50350.19;5082262;28;20040;-70
2022/03/21 07:32:19;;;;;;;94.38;36.10;;;;;;;-149.78;100.00;50318.91;5066001;28;20048;-71
2022/03/21 07:34:45;;;;;;;88.03;36.50;;;;;;;-149.78;100.00;50354.09;5082651;28;20036;-70
2022/03/21 07:37:10;;;;;;;80.72;33.53;;;;;;;-149.78;100.00;50314.97;5084255;28;20123;-71
2022/03/21 07:39:37;;;;;;;79.63;32.60;;;;;;;-149.78;100.00;50358.00;5077489;28;20532;-71
2022/03/21 07:42:03;;;;;;;80.15;35.20;;;;;;;-149.78;100.00;50275.88;5080642;28;20390;-71
2022/03/21 07:47:20;;;;;;;72.85;33.08;;;;;;;-149.78;100.00;50271.97;5076799;28;20025;-75
2022/03/21 07:49:48;;;;;;;76.65;33.40;;;;;;;-149.78;100.00;50252.41;5063246;28;20654;-76
2022/03/21 07:52:14;;;;;;;70.88;33.08;;;;;;;-149.78;100.00;50236.75;5076940;28;20034;-76
2022/03/21 07:54:41;;;;;;;74.80;33.20;;;;;;;-149.78;100.00;50256.31;5084800;28;20020;-76
2022/03/21 07:57:07;;;;;;;64.78;31.20;;;;;;;-149.78;100.00;50203.50;5083218;28;20090;-76
2022/03/21 07:59:32;;;;;;;70.63;32.92;;;;;;;-149.78;100.00;50228.94;5056222;28;20082;-76
2022/03/21 08:01:58;;;;;;;65.53;33.00;;;;;;;-149.78;100.00;50189.81;5074186;28;20031;-76
2022/03/21 08:04:25;;;;;;;66.50;32.78;;;;;;;-149.78;100.00;50189.81;5085343;28;20040;-77
2022/03/21 08:06:53;;;;;;;58.78;32.53;;;;;;;-149.78;100.00;50205.47;5077062;28;20032;-75
2022/03/21 08:09:18;;;;;;;61.65;31.90;;;;;;;-149.78;100.00;50199.59;5060767;28;20036;-76
2022/03/21 08:11:45;;;;;;;66.70;32.42;;;;;;;-149.78;100.00;50178.09;5059761;28;20114;-74
2022/03/21 08:14:11;;;;;;;63.63;32.58;;;;;;;-149.78;100.00;50182.00;5079446;28;20039;-73
2022/03/21 08:16:38;;;;;;;60.05;33.25;;;;;;;-149.78;100.00;50176.13;5079015;28;20119;-74
2022/03/21 08:19:04;;;;;;;55.83;32.05;;;;;;;-149.78;100.00;50162.44;5071029;28;20087;-73
2022/03/21 08:21:29;;;;;;;56.53;32.55;;;;;;;-149.78;87.40;50160.50;5077208;28;20516;-76
2022/03/21 08:23:56;;;;;;;65.82;34.03;;;;;;;-149.78;78.31;50158.53;5088522;28;20082;-75
2022/03/21 08:26:21;;;;;;;68.68;33.92;;;;;;;-149.78;71.91;50162.44;5090675;28;20392;-75
2022/03/21 08:28:47;;;;;;;62.92;34.35;;;;;;;-149.78;78.64;50146.81;5077350;28;20033;-75
2022/03/21 08:31:13;;;;;;;64.55;34.05;;;;;;;-149.78;69.90;50146.81;5078793;28;20033;-76
2022/03/21 08:33:41;;;;;;;62.78;33.92;;;;;;;-149.78;70.21;50172.22;5072103;28;20085;-75
2022/03/21 08:36:07;;;;;;;62.90;33.55;;;;;;;-149.78;67.37;50123.34;5072379;28;20040;-75
2022/03/21 08:38:33;;;;;;;63.33;34.95;;;;;;;-149.78;65.84;50131.16;5071925;28;20032;-76
2022/03/21 08:40:59;;;;;;;65.90;34.83;;;;;;;-149.78;63.66;50129.19;5072068;28;20082;-76
2022/03/21 08:43:25;;;;;;;61.67;35.00;;;;;;;-149.78;62.98;50119.41;5071976;28;20035;-76
2022/03/21 08:45:51;;;;;;;62.33;35.13;;;;;;;-149.78;61.68;50111.59;5071856;28;20037;-76
2022/03/21 08:48:16;;;;;;;64.47;34.13;;;;;;;-149.78;61.73;50107.69;5071940;28;20048;-76
2022/03/21 08:50:44;;;;;;;61.10;34.05;;;;;;;-149.78;57.77;50099.88;5071734;28;20165;-75
2022/03/21 08:53:10;;;;;;;64.07;33.58;;;;;;;-149.78;55.65;50117.47;5088915;28;20032;-77
2022/03/21 08:55:36;;;;;;;59.55;33.83;;;;;;;-149.78;56.90;50095.94;5071795;28;20073;-74
2022/03/21 08:58:02;;;;;;;55.90;33.28;;;;;;;-149.78;56.53;50074.44;5071926;28;20036;-74
2022/03/21 09:00:27;;;;;;;63.38;33.30;;;;;;;-149.78;56.45;50076.41;5072375;28;20028;-75
2022/03/21 09:02:55;;;;;;;62.38;33.83;;;;;;;-149.78;52.42;50076.41;5062089;28;20036;-75
2022/03/21 09:05:22;;;;;;;56.30;33.10;;;;;;;-149.78;50.76;50052.94;5087133;28;20077;-76
2022/03/21 09:07:48;;;;;;;55.15;32.65;;;;;;;-149.78;47.71;50056.84;5084891;28;20036;-75
2022/03/21 09:10:16;;;;;;;56.13;31.20;;;;;;;-149.78;46.35;50002.09;5069311;28;20040;-75
2022/03/21 09:12:43;;;;;;;52.15;30.75;;;;;;;-149.78;44.46;50050.97;5076555;28;20040;-75
2022/03/21 09:15:09;;;;;;;51.55;30.50;;;;;;;-149.78;43.46;50060.75;5072714;28;20074;-75
2022/03/21 09:17:38;;;;;;;53.03;31.83;;;;;;;-149.78;43.03;50011.88;5071563;28;20085;-75
2022/03/21 09:20:06;;;;;;;50.13;28.65;;;;;;;-149.78;43.11;49998.19;5072444;28;20069;-76
2022/03/21 09:22:32;;;;;;;45.55;29.42;;;;;;;-149.78;42.40;49986.44;5071364;28;20047;-75
2022/03/21 09:24:58;;;;;;;51.85;31.25;;;;;;;-149.78;43.84;50021.63;5070831;28;20045;-75
2022/03/21 09:27:24;;;;;;;53.72;32.67;;;;;;;-149.78;44.54;50013.81;5077299;28;20067;-73
2022/03/21 09:29:50;;;;;;;49.20;30.65;;;;;;;-149.78;43.39;50023.59;5092236;28;20040;-73
2022/03/21 09:32:17;;;;;;;50.13;30.65;;;;;;;-149.78;43.29;50021.63;5078223;28;20376;-74
2022/03/21 09:34:44;;;;;;;47.03;29.73;;;;;;;-149.78;42.41;50025.56;5070655;28;20119;-75
2022/03/21 09:37:10;;;;;;;50.17;29.85;;;;;;;-149.78;42.04;49998.19;5072009;28;20039;-75
2022/03/21 09:39:36;;;;;;;50.90;30.15;;;;;;;-149.78;44.69;50027.50;5089929;28;20032;-74
2022/03/21 09:42:03;;;;;;;44.40;29.15;;;;;;;-149.78;43.56;50021.63;5076986;28;20043;-75
2022/03/21 09:44:29;;;;;;;42.63;27.80;;;;;;;-149.78;41.53;49978.63;5088341;28;20493;-75
2022/03/21 09:46:57;;;;;;;43.03;27.52;;;;;;;-149.78;40.62;49959.06;5090773;28;20067;-75
2022/03/21 09:49:26;;;;;;;49.05;28.80;;;;;;;-149.78;40.95;49998.19;5090648;28;20028;-75
2022/03/21 09:51:54;;;;;;;46.08;28.35;;;;;;;-149.78;40.39;49962.97;5091518;28;20050;-75
2022/03/21 09:54:20;;;;;;;42.90;27.45;;;;;;;-149.78;38.83;50006.00;5090498;28;20036;-75
2022/03/21 09:56:47;;;;;;;43.72;27.25;;;;;;;-149.78;40.21;49976.66;5090443;28;20040;-75
2022/03/21 09:59:12;;;;;;;46.63;29.88;;;;;;;-149.78;40.04;49994.25;5088698;28;20050;-75
2022/03/21 10:01:38;;;;;;;44.75;28.33;;;;;;;-149.78;39.09;49982.53;5081515;28;20476;-75
2022/03/21 10:04:06;;;;;;;48.17;29.92;;;;;;;-149.78;40.64;49982.53;5076026;28;20448;-75
2022/03/21 10:06:34;;;;;;;43.30;27.52;;;;;;;-149.78;40.50;49992.31;5073789;28;20131;-75
2022/03/21 10:09:12;;;;;;;42.53;29.00;;;;;;;-149.78;42.02;50006.00;5074492;28;20040;-75
2022/03/21 10:11:58;;;;;;;43.20;25.90;;;;;;;-149.78;39.42;49976.66;5076465;28;20474;-75
2022/03/21 10:14:34;;;;;;;44.40;26.42;;;;;;;-149.78;39.57;49955.16;5079727;28;20040;-74
2022/03/21 10:17:01;;;;;;;43.90;25.83;;;;;;;-149.78;37.79;49982.53;5080606;28;20395;-75
2022/03/21 10:19:46;;;;;;;44.67;25.63;;;;;;;-149.78;37.51;49986.44;5091015;28;20484;-74
2022/03/21 10:22:14;;;;;;;50.67;27.55;;;;;;;-149.78;37.57;49970.78;5088315;28;20696;-75
2022/03/21 10:24:45;;;;;;;43.10;25.55;;;;;;;-149.78;37.65;49990.34;5075294;28;20123;-75
2022/03/21 10:27:37;;;;;;;43.53;26.53;;;;;;;-149.78;37.92;49990.34;5080382;28;20040;-74
2022/03/21 10:30:15;;;;;;;45.20;27.17;;;;;;;-149.78;37.24;49962.97;5083202;28;20464;-75
2022/03/21 10:32:55;;;;;;;45.30;26.58;;;;;;;-149.78;38.29;50006.00;5075361;28;20426;-75
2022/03/21 10:35:24;;;;;;;39.88;26.52;;;;;;;-149.78;39.10;50033.38;5073904;28;20029;-75
2022/03/21 10:37:51;;;;;;;39.95;25.80;;;;;;;-149.78;39.20;49966.88;5073971;28;20036;-75
2022/03/21 10:40:27;;;;;;;37.10;24.92;;;;;;;-149.78;37.62;50000.13;5075271;28;20067;-74
2022/03/21 10:42:59;;;;;;;44.83;25.88;;;;;;;-149.78;38.20;50039.25;5075204;28;20056;-75
2022/03/21 10:45:40;;;;;;;40.30;24.50;;;;;;;-149.78;37.45;49984.50;5074082;28;20029;-75
2022/03/21 10:48:10;;;;;;;38.23;22.67;;;;;;;-149.78;36.57;49992.31;5080530;28;20055;-75
2022/03/21 10:50:40;;;;;;;36.88;21.20;;;;;;;-149.78;35.07;50011.88;5082278;28;20475;-75
2022/03/21 10:53:22;;;;;;;32.25;20.70;;;;;;;-149.78;34.42;49978.63;5077497;28;20056;-73
2022/03/21 10:55:57;;;;;;;36.20;22.15;;;;;;;-149.78;34.95;50025.56;5079591;28;20036;-75
2022/03/21 10:58:44;;;;;;;32.40;20.75;;;;;;;-149.78;36.21;50002.09;5095141;28;20051;-74
2022/03/21 11:01:27;;;;;;;38.30;23.20;;;;;;;-149.78;35.82;50011.88;5084200;28;20039;-73
2022/03/21 11:03:59;;;;;;;34.80;21.10;;;;;;;-149.78;36.06;50025.56;5088028;28;20024;-74
2022/03/21 11:06:29;;;;;;;32.28;20.70;;;;;;;-149.78;35.79;50049.03;5087435;28;20700;-74
2022/03/21 11:08:55;;;;;;;31.48;19.67;;;;;;;-149.78;35.26;50009.91;5086891;28;20032;-74
2022/03/21 11:11:22;;;;;;;38.72;22.30;;;;;;;-149.78;34.41;50021.63;5089084;28;20119;-74
2022/03/21 11:13:50;;;;;;;38.22;21.35;;;;;;;-149.78;35.80;50029.47;5080678;28;20031;-74
2022/03/21 11:16:19;;;;;;;35.33;21.95;;;;;;;-149.78;35.62;50045.09;5086209;28;20104;-73